This is the latest recevied weather packets stored in our database for station/object SR6WXJG. If no packets are shown the sender has not sent any weather packets the latest 10 day(s).
| Time | Temp. | Humidity | Pressure | Rain* | Wind** | Luminosity | Snow |
|---|---|---|---|---|---|---|---|
| 1777556877 | 13.89° C | 34% | 1029 hPa | 0 mm | - | - | - |
| 1777555977 | 13.89° C | 34% | 1030 hPa | 0 mm | - | - | - |
| 1777555076 | 13.89° C | 33% | 1030 hPa | 0 mm | - | - | - |
| 1777554176 | 13.89° C | 33% | 1030 hPa | 0 mm | - | - | - |
| 1777553276 | 13.89° C | 33% | 1030 hPa | 0 mm | - | - | - |
| 1777552375 | 13.89° C | 34% | 1030 hPa | 0 mm | - | - | - |
| 1777551475 | 13.33° C | 31% | 1031 hPa | 0 mm | - | - | - |
| 1777550574 | 12.78° C | 34% | 1031 hPa | 0 mm | - | - | - |
| 1777549674 | 12.78° C | 34% | 1031 hPa | 0 mm | - | - | - |
| 1777548774 | 12.78° C | 35% | 1031 hPa | 0 mm | - | - | - |
| 1777547874 | 12.22° C | 32% | 1032 hPa | 0 mm | - | - | - |
| 1777546973 | 12.22° C | 35% | 1032 hPa | 0 mm | - | - | - |
| 1777546073 | 12.22° C | 35% | 1031 hPa | 0 mm | - | - | - |
| 1777545173 | 12.22° C | 36% | 1032 hPa | 0 mm | - | - | - |
| 1777544272 | 11.11° C | 33% | 1032 hPa | 0 mm | - | - | - |
| 1777543372 | 11.11° C | 36% | 1032 hPa | 0 mm | - | - | - |
| 1777542472 | 11.11° C | 37% | 1032 hPa | 0 mm | - | - | - |
| 1777541571 | 11.11° C | 37% | 1032 hPa | 0 mm | - | - | - |
| 1777540671 | 10° C | 35% | 1032 hPa | 0 mm | - | - | - |
| 1777539770 | 10° C | 38% | 1032 hPa | 0 mm | - | - | - |
| 1777538870 | 10° C | 38% | 1032 hPa | 0 mm | - | - | - |
| 1777537970 | 10° C | 39% | 1032 hPa | 0 mm | - | - | - |
| 1777537070 | 8.89° C | 39% | 1032 hPa | 0 mm | - | - | - |
| 1777536169 | 8.89° C | 42% | 1033 hPa | 0 mm | - | - | - |
| 1777535269 | 8.89° C | 43% | 1033 hPa | 0 mm | - | - | - |
* Rain latest hour (hover to see other rain measurements)
** Current wind speed in m/s (hover to see current wind gust speed)